Time;durP1;ratioP1;P1;durP2;ratioP2;P2;SDS_P1;SDS_P2;PMS_P1;PMS_P2;Temp;Humidity;BMP_temperature;BMP_pressure;BME280_temperature;BME280_humidity;BME280_pressure;Samples;Min_cycle;Max_cycle;Signal;HPM_P1;HPM_P2
2021/10/16 00:02:12;;;;;;;;;;;;;;;7.90;57.73;99758.44;4863763;29;19923;-75
2021/10/16 00:04:37;;;;;;;;;;;;;;;7.86;58.00;99751.53;4879516;29;19930;-77
2021/10/16 00:07:03;;;;;;;;;;;;;;;7.80;58.16;99748.09;4848602;29;19977;-78
2021/10/16 00:09:28;;;;;;;;;;;;;;;7.78;57.99;99743.75;4871519;29;19923;-77
2021/10/16 00:11:54;;;;;;;;;;;;;;;7.77;58.19;99753.25;4896438;29;19923;-78
2021/10/16 00:14:19;;;;;;;;;;;;;;;7.77;58.50;99753.25;4878989;29;19927;-77
2021/10/16 00:16:45;;;;;;;;;;;;;;;7.83;58.81;99750.66;4848814;29;19927;-77
2021/10/16 00:19:11;;;;;;;;;;;;;;;7.93;58.56;99748.97;4895563;29;19924;-77
2021/10/16 00:21:37;;;;;;;;;;;;;;;8.03;58.69;99747.25;4879029;29;19927;-77
2021/10/16 00:24:03;;;;;;;;;;;;;;;8.11;58.59;99739.47;4862980;29;19947;-77
2021/10/16 00:26:30;;;;;;;;;;;;;;;8.20;58.54;99742.03;4894773;29;20407;-76
2021/10/16 00:28:56;;;;;;;;;;;;;;;8.29;58.49;99742.06;4871098;29;19981;-77
2021/10/16 00:31:21;;;;;;;;;;;;;;;8.33;58.32;99737.72;4875730;29;19959;-76
2021/10/16 00:33:47;;;;;;;;;;;;;;;8.39;58.42;99744.63;4868158;29;20027;-78
2021/10/16 00:36:12;;;;;;;;;;;;;;;8.43;58.43;99739.44;4867411;29;19979;-76
2021/10/16 00:38:38;;;;;;;;;;;;;;;8.46;58.23;99738.56;4869668;29;19923;-76
2021/10/16 00:41:03;;;;;;;;;;;;;;;8.49;58.21;99730.81;4882145;29;19952;-77
2021/10/16 00:43:29;;;;;;;;;;;;;;;8.51;58.30;99731.69;4868502;29;19924;-78
2021/10/16 00:45:55;;;;;;;;;;;;;;;8.55;58.32;99743.78;4876614;29;19931;-77
2021/10/16 00:48:21;;;;;;;;;;;;;;;8.43;58.33;99723.91;4876934;29;20466;-76
2021/10/16 00:50:47;;;;;;;;;;;;;;;8.59;58.22;99736.84;4880086;29;19931;-77
2021/10/16 00:53:13;;;;;;;;;;;;;;;8.59;58.25;99737.75;4876616;29;20344;-78
2021/10/16 00:55:39;;;;;;;;;;;;;;;8.63;58.53;99741.19;4878267;29;19923;-76
2021/10/16 00:58:04;;;;;;;;;;;;;;;8.64;58.40;99742.91;4866446;29;19951;-75
2021/10/16 01:00:30;;;;;;;;;;;;;;;8.67;58.43;99747.22;4876118;29;19928;-77
2021/10/16 01:02:56;;;;;;;;;;;;;;;8.68;58.34;99741.16;4879107;29;19927;-76
2021/10/16 01:05:22;;;;;;;;;;;;;;;8.69;58.59;99741.19;4860569;29;19923;-79
2021/10/16 01:07:49;;;;;;;;;;;;;;;8.73;58.48;99739.44;4875334;29;20384;-76
2021/10/16 01:10:15;;;;;;;;;;;;;;;8.75;58.70;99750.66;4878019;29;19923;-78
2021/10/16 01:12:41;;;;;;;;;;;;;;;8.81;58.52;99744.59;4861424;29;19928;-78
2021/10/16 01:15:08;;;;;;;;;;;;;;;8.84;58.25;99745.44;4860057;29;19923;-77
2021/10/16 01:17:35;;;;;;;;;;;;;;;8.87;58.40;99748.03;4881776;29;19924;-76
2021/10/16 01:20:21;;;;;;;;;;;;;;;8.89;58.15;99743.72;4878035;29;19924;-76
2021/10/16 01:22:50;;;;;;;;;;;;;;;8.92;58.51;99740.25;4874924;29;19934;-78
2021/10/16 01:25:20;;;;;;;;;;;;;;;8.96;58.20;99744.53;4877020;29;20026;-77
2021/10/16 01:27:46;;;;;;;;;;;;;;;8.96;58.19;99744.53;4879754;29;19947;-77
2021/10/16 01:30:13;;;;;;;;;;;;;;;8.98;58.39;99736.78;4890056;29;19959;-78
2021/10/16 01:32:39;;;;;;;;;;;;;;;8.97;58.18;99733.28;4867109;29;20404;-77
2021/10/16 01:35:07;;;;;;;;;;;;;;;8.98;58.17;99731.59;4897040;29;19912;-76
2021/10/16 01:37:34;;;;;;;;;;;;;;;8.97;58.33;99727.25;4878125;29;20016;-77
2021/10/16 01:40:01;;;;;;;;;;;;;;;8.98;58.48;99732.44;4860227;29;19923;-78
2021/10/16 01:42:30;;;;;;;;;;;;;;;9.03;58.19;99735.88;4868205;29;19923;-77
2021/10/16 01:45:01;;;;;;;;;;;;;;;9.03;58.27;99725.50;4874972;29;19923;-78
2021/10/16 01:47:28;;;;;;;;;;;;;;;9.00;58.29;99728.09;4873675;29;19927;-77
2021/10/16 01:49:56;;;;;;;;;;;;;;;9.01;58.27;99729.81;4883247;29;19923;-76
2021/10/16 01:52:22;;;;;;;;;;;;;;;9.00;58.23;99733.28;4873592;29;20414;-77
2021/10/16 01:54:50;;;;;;;;;;;;;;;9.00;58.38;99725.50;4874204;29;19923;-77
2021/10/16 01:57:16;;;;;;;;;;;;;;;9.01;58.53;99729.81;4874166;29;19931;-76
2021/10/16 01:59:51;;;;;;;;;;;;;;;9.02;58.42;99717.72;4874334;29;20016;-77
2021/10/16 02:02:32;;;;;;;;;;;;;;;9.05;58.41;99707.31;4875667;29;19930;-76
2021/10/16 02:05:18;;;;;;;;;;;;;;;9.08;58.51;99709.91;4878661;29;19923;-77
2021/10/16 02:07:50;;;;;;;;;;;;;;;9.09;58.39;99700.38;4874619;29;19927;-76
2021/10/16 02:10:16;;;;;;;;;;;;;;;9.09;58.14;99701.25;4875753;29;20459;-77
2021/10/16 02:12:44;;;;;;;;;;;;;;;9.09;58.22;99697.78;4858711;29;19934;-77
2021/10/16 02:15:11;;;;;;;;;;;;;;;9.09;58.64;99700.38;4874410;29;20408;-77
2021/10/16 02:17:52;;;;;;;;;;;;;;;9.11;58.65;99696.06;4874113;29;19927;-76
2021/10/16 02:20:18;;;;;;;;;;;;;;;9.10;58.41;99689.13;4874782;29;19923;-77
2021/10/16 02:22:44;;;;;;;;;;;;;;;9.07;58.56;99695.19;4873919;29;19923;-77
2021/10/16 02:25:10;;;;;;;;;;;;;;;9.08;58.73;99689.13;4875089;29;19971;-76
2021/10/16 02:27:37;;;;;;;;;;;;;;;9.09;58.60;99698.66;4867723;29;20067;-77
2021/10/16 02:30:03;;;;;;;;;;;;;;;9.11;58.59;99696.06;4861892;29;19940;-77
2021/10/16 02:32:33;;;;;;;;;;;;;;;9.09;58.54;99696.03;4875092;29;20268;-77
2021/10/16 02:34:59;;;;;;;;;;;;;;;9.08;58.72;99690.88;4875005;29;19923;-78
2021/10/16 02:37:25;;;;;;;;;;;;;;;9.08;58.63;99683.94;4874383;29;19924;-78
2021/10/16 02:39:50;;;;;;;;;;;;;;;9.08;58.79;99689.13;4859698;29;19930;-77
2021/10/16 02:42:16;;;;;;;;;;;;;;;9.09;58.73;99688.25;4858456;29;19924;-78
2021/10/16 02:44:42;;;;;;;;;;;;;;;9.10;58.94;99683.94;4874209;29;19932;-78
2021/10/16 02:47:07;;;;;;;;;;;;;;;9.11;59.05;99686.53;4866445;29;19970;-78
2021/10/16 02:49:33;;;;;;;;;;;;;;;9.13;58.70;99696.91;4875845;29;19924;-77
2021/10/16 02:51:59;;;;;;;;;;;;;;;9.14;58.71;99683.06;4878419;29;19924;-76
2021/10/16 02:54:25;;;;;;;;;;;;;;;9.15;58.92;99682.19;4878142;29;19931;-76
2021/10/16 02:56:52;;;;;;;;;;;;;;;9.16;58.91;99679.59;4877280;29;20531;-78
2021/10/16 02:59:18;;;;;;;;;;;;;;;9.18;58.75;99671.78;4877640;29;19916;-76
2021/10/16 03:01:47;;;;;;;;;;;;;;;9.21;59.00;99682.16;4862032;29;19966;-78
2021/10/16 03:04:13;;;;;;;;;;;;;;;9.21;58.67;99673.50;4870226;29;19924;-78
2021/10/16 03:06:40;;;;;;;;;;;;;;;9.18;58.91;99677.84;4877432;29;19985;-79
2021/10/16 03:09:06;;;;;;;;;;;;;;;9.17;58.67;99677.84;4886231;29;19927;-78
2021/10/16 03:11:34;;;;;;;;;;;;;;;9.16;58.92;99674.38;4890161;29;19924;-76
2021/10/16 03:14:00;;;;;;;;;;;;;;;9.18;58.99;99676.97;4878536;29;19980;-78
2021/10/16 03:16:26;;;;;;;;;;;;;;;9.20;58.96;99675.22;4879665;29;19930;-76
2021/10/16 03:18:53;;;;;;;;;;;;;;;9.22;58.78;99681.28;4880369;29;19927;-78
2021/10/16 03:21:20;;;;;;;;;;;;;;;9.27;58.79;99676.09;4860155;29;19912;-77
2021/10/16 03:23:47;;;;;;;;;;;;;;;9.27;58.97;99681.28;4886977;29;19995;-76
2021/10/16 03:26:12;;;;;;;;;;;;;;;9.27;58.73;99666.53;4898540;29;20256;-76
2021/10/16 03:28:38;;;;;;;;;;;;;;;9.29;58.95;99670.00;4863472;29;20409;-78
2021/10/16 03:31:04;;;;;;;;;;;;;;;9.31;58.70;99668.25;4878561;29;19928;-78
2021/10/16 03:33:29;;;;;;;;;;;;;;;9.31;58.79;99675.16;4872191;29;19955;-77
2021/10/16 03:35:55;;;;;;;;;;;;;;;9.30;58.96;99666.53;4879701;29;20304;-79
2021/10/16 03:38:21;;;;;;;;;;;;;;;9.29;58.84;99671.72;4879287;29;19923;-78
2021/10/16 03:40:48;;;;;;;;;;;;;;;9.28;58.70;99665.69;4877481;29;20011;-79
2021/10/16 03:43:14;;;;;;;;;;;;;;;9.29;58.73;99670.00;4878062;29;20392;-78
2021/10/16 03:45:39;;;;;;;;;;;;;;;9.27;58.77;99676.09;4879323;29;19927;-78
2021/10/16 03:48:10;;;;;;;;;;;;;;;9.24;58.80;99674.34;4884938;29;20300;-76
2021/10/16 03:50:39;;;;;;;;;;;;;;;9.26;58.83;99680.41;5022022;23;19936;-77
2021/10/16 03:53:05;;;;;;;;;;;;;;;9.25;58.81;99678.66;4892277;29;19930;-78
2021/10/16 03:55:32;;;;;;;;;;;;;;;9.28;58.77;99675.19;4891103;29;19927;-77
2021/10/16 03:57:58;;;;;;;;;;;;;;;9.28;58.90;99662.19;4890889;29;20076;-75
2021/10/16 04:00:23;;;;;;;;;;;;;;;9.28;58.69;99682.97;4892492;29;19924;-77
2021/10/16 04:02:59;;;;;;;;;;;;;;;9.28;58.87;99673.47;4891077;29;19954;-78
2021/10/16 04:05:25;;;;;;;;;;;;;;;9.27;58.66;99665.69;4892409;29;19930;-77
2021/10/16 04:07:51;;;;;;;;;;;;;;;9.27;58.93;99661.34;4889880;29;19928;-76
2021/10/16 04:10:16;;;;;;;;;;;;;;;9.28;58.79;99664.78;4874720;29;19928;-77
2021/10/16 04:12:44;;;;;;;;;;;;;;;9.29;58.88;99679.50;4889719;29;19923;-77
2021/10/16 04:15:10;;;;;;;;;;;;;;;9.31;58.67;99668.25;4873874;29;19923;-78
2021/10/16 04:17:39;;;;;;;;;;;;;;;9.30;58.47;99660.47;4870925;29;19928;-77
2021/10/16 04:20:06;;;;;;;;;;;;;;;9.29;58.61;99680.38;4873944;29;19924;-78
2021/10/16 04:22:41;;;;;;;;;;;;;;;9.29;58.45;99680.38;4892602;29;19923;-78
2021/10/16 04:25:07;;;;;;;;;;;;;;;9.29;58.41;99664.81;4870031;29;20963;-78
2021/10/16 04:27:33;;;;;;;;;;;;;;;9.29;58.75;99679.50;4883560;29;19972;-76
2021/10/16 04:30:11;;;;;;;;;;;;;;;9.30;58.92;99666.53;4881274;29;19980;-78
2021/10/16 04:32:37;;;;;;;;;;;;;;;9.32;58.67;99666.50;4867970;29;20361;-79
2021/10/16 04:35:06;;;;;;;;;;;;;;;9.31;58.86;99657.00;4869361;29;19948;-77
2021/10/16 04:37:33;;;;;;;;;;;;;;;9.34;58.49;99665.66;4882484;29;19932;-76
2021/10/16 04:40:10;;;;;;;;;;;;;;;9.36;58.68;99669.97;4851357;29;20459;-77
2021/10/16 04:42:39;;;;;;;;;;;;;;;9.32;58.34;99672.59;4867398;29;19931;-76
2021/10/16 04:45:14;;;;;;;;;;;;;;;9.35;58.66;99663.91;4882313;29;19943;-77
2021/10/16 04:47:40;;;;;;;;;;;;;;;9.38;58.46;99657.84;4850552;29;19935;-77
2021/10/16 04:50:06;;;;;;;;;;;;;;;9.37;58.40;99659.56;4873517;29;19932;-79
2021/10/16 04:52:33;;;;;;;;;;;;;;;9.37;58.57;99663.91;4854626;29;19931;-77
2021/10/16 04:55:06;;;;;;;;;;;;;;;9.38;58.41;99652.66;4870460;29;19927;-77
2021/10/16 04:57:42;;;;;;;;;;;;;;;9.43;58.37;99656.06;4854760;29;19924;-79
2021/10/16 05:00:08;;;;;;;;;;;;;;;9.46;58.49;99666.44;4885460;29;20061;-77
2021/10/16 05:02:40;;;;;;;;;;;;;;;9.48;58.13;99651.69;4877826;29;20449;-75
2021/10/16 05:05:12;;;;;;;;;;;;;;;9.49;58.24;99664.66;4869927;29;19924;-77
2021/10/16 05:07:47;;;;;;;;;;;;;;;9.48;58.03;99649.97;4869901;29;19939;-81
2021/10/16 05:10:14;;;;;;;;;;;;;;;9.52;58.33;99650.81;4873029;29;19978;-77
2021/10/16 05:12:48;;;;;;;;;;;;;;;9.54;58.15;99638.69;4899332;29;19947;-79
2021/10/16 05:15:15;;;;;;;;;;;;;;;9.56;57.76;99636.94;4909748;29;20009;-77
2021/10/16 05:17:49;;;;;;;;;;;;;;;9.59;58.16;99642.09;4887903;29;19923;-76
2021/10/16 05:20:21;;;;;;;;;;;;;;;9.60;57.98;99643.81;4857898;29;19976;-78
2021/10/16 05:22:50;;;;;;;;;;;;;;;9.61;57.99;99631.69;4889716;29;20823;-79
2021/10/16 05:25:17;;;;;;;;;;;;;;;9.62;57.70;99630.81;4888994;29;19974;-80
2021/10/16 05:27:43;;;;;;;;;;;;;;;9.64;57.97;99624.72;4873148;29;19928;-78
2021/10/16 05:30:12;;;;;;;;;;;;;;;9.65;57.53;99625.59;4855394;29;20452;-78
2021/10/16 05:32:48;;;;;;;;;;;;;;;9.68;57.54;99622.09;4870698;29;19924;-78
2021/10/16 05:35:16;;;;;;;;;;;;;;;9.68;57.44;99625.59;4876871;29;19978;-77
2021/10/16 05:37:44;;;;;;;;;;;;;;;9.72;57.45;99629.00;4868891;29;20357;-77
2021/10/16 05:40:14;;;;;;;;;;;;;;;9.76;57.70;99622.91;4870388;29;19978;-77
2021/10/16 05:42:43;;;;;;;;;;;;;;;9.81;57.69;99618.56;4887386;29;19923;-76
2021/10/16 05:45:11;;;;;;;;;;;;;;;9.89;57.07;99618.47;4887929;29;19930;-78
2021/10/16 05:47:41;;;;;;;;;;;;;;;10.00;57.02;99618.38;4885763;29;20407;-77
2021/10/16 05:50:09;;;;;;;;;;;;;;;10.08;57.27;99608.75;4870610;29;19958;-79
2021/10/16 05:52:35;;;;;;;;;;;;;;;10.20;57.30;99600.84;4854460;29;19924;-78
2021/10/16 05:55:02;;;;;;;;;;;;;;;10.24;56.88;99605.13;4871723;29;19934;-77
2021/10/16 05:57:28;;;;;;;;;;;;;;;10.31;56.96;99612.84;4870453;29;19927;-80
2021/10/16 05:59:54;;;;;;;;;;;;;;;10.40;56.69;99612.81;4869190;29;20006;-79
2021/10/16 06:02:20;;;;;;;;;;;;;;;10.46;56.40;99610.13;4870338;29;19924;-77
2021/10/16 06:04:49;;;;;;;;;;;;;;;10.62;56.29;99604.75;4855007;29;20344;-79
2021/10/16 06:07:18;;;;;;;;;;;;;;;10.65;56.35;99602.97;4887803;29;19928;-77
2021/10/16 06:09:45;;;;;;;;;;;;;;;10.62;55.83;99597.78;4874124;29;19930;-79
2021/10/16 06:12:13;;;;;;;;;;;;;;;10.62;55.80;99600.38;4871825;29;19964;-78
2021/10/16 06:14:40;;;;;;;;;;;;;;;10.65;55.76;99599.50;4872922;29;19971;-78
2021/10/16 06:17:20;;;;;;;;;;;;;;;10.62;55.98;99602.16;4858993;29;20411;-78
2021/10/16 06:19:46;;;;;;;;;;;;;;;10.59;55.75;99589.16;4854820;29;19927;-79
2021/10/16 06:22:12;;;;;;;;;;;;;;;10.61;55.84;99587.41;4871877;29;19939;-79
2021/10/16 06:24:41;;;;;;;;;;;;;;;10.68;55.73;99587.31;4888443;29;19924;-79
2021/10/16 06:27:06;;;;;;;;;;;;;;;10.76;56.06;99586.34;4879720;29;19950;-78
2021/10/16 06:29:32;;;;;;;;;;;;;;;10.78;55.75;99577.63;4897433;29;19924;-79
2021/10/16 06:32:00;;;;;;;;;;;;;;;10.83;55.50;99583.66;4861674;29;19948;-79
2021/10/16 06:34:26;;;;;;;;;;;;;;;10.84;54.99;99581.91;4895456;29;19927;-79
2021/10/16 06:36:54;;;;;;;;;;;;;;;10.95;55.17;99581.75;4885209;29;20001;-76
2021/10/16 06:39:20;;;;;;;;;;;;;;;11.02;55.10;99592.97;4867183;29;19923;-79
2021/10/16 06:41:55;;;;;;;;;;;;;;;11.08;54.78;99592.84;4866639;29;19931;-80
2021/10/16 06:44:29;;;;;;;;;;;;;;;11.14;54.73;99597.97;4901451;29;19923;-77
2021/10/16 06:47:33;;;;;;;;;;;;;;;11.14;54.19;99575.38;4870102;29;19924;-81
2021/10/16 06:50:12;;;;;;;;;;;;;;;11.23;54.67;99581.34;4880046;29;19928;-80
2021/10/16 06:52:59;;;;;;;;;;;;;;;11.35;54.26;99575.97;4897478;29;19924;-78
2021/10/16 06:55:25;;;;;;;;;;;;;;;11.35;53.84;99581.19;4881172;29;19931;-79
2021/10/16 06:57:50;;;;;;;;;;;;;;;11.32;53.69;99589.03;4902816;29;19931;-80
2021/10/16 07:00:22;;;;;;;;;;;;;;;11.27;53.90;99577.81;4884755;29;20003;-78
2021/10/16 07:02:48;;;;;;;;;;;;;;;11.30;53.99;99565.59;4891239;29;19935;-79
2021/10/16 07:05:16;;;;;;;;;;;;;;;11.29;53.41;99581.28;4878322;29;19949;-78
2021/10/16 07:07:42;;;;;;;;;;;;;;;11.27;53.64;99567.41;4879518;29;19916;-79
2021/10/16 07:10:08;;;;;;;;;;;;;;;11.32;53.73;99573.41;4892600;29;19936;-78
2021/10/16 07:12:35;;;;;;;;;;;;;;;11.49;53.19;99567.06;4888201;29;19966;-79
2021/10/16 07:15:00;;;;;;;;;;;;;;;11.69;53.00;99574.56;4877119;29;19923;-80
2021/10/16 07:17:26;;;;;;;;;;;;;;;11.73;52.92;99571.00;4875323;29;19951;-78
2021/10/16 07:19:52;;;;;;;;;;;;;;;11.75;52.15;99582.25;4872883;29;20003;-80
2021/10/16 07:22:18;;;;;;;;;;;;;;;11.79;52.27;99576.09;4875152;29;20454;-79
2021/10/16 07:24:43;;;;;;;;;;;;;;;11.93;52.32;99565.44;4877740;29;20479;-78
2021/10/16 07:27:09;;;;;;;;;;;;;;;12.05;52.04;99577.44;4871614;29;19974;-79
2021/10/16 07:29:35;;;;;;;;;;;;;;;12.24;52.03;99570.13;4872446;29;19927;-77
2021/10/16 07:32:15;;;;;;;;;;;;;;;12.35;51.68;99578.59;4871831;29;19919;-78
2021/10/16 07:34:46;;;;;;;;;;;;;;;12.38;51.03;99575.03;4872438;29;19928;-78
2021/10/16 07:37:12;;;;;;;;;;;;;;;12.46;51.03;99573.16;4871363;29;20301;-80
2021/10/16 07:39:38;;;;;;;;;;;;;;;12.54;50.66;99572.16;4856106;29;19923;-81
2021/10/16 07:42:03;;;;;;;;;;;;;;;12.48;50.15;99597.47;4870758;29;19931;-79
2021/10/16 07:44:29;;;;;;;;;;;;;;;12.38;50.21;99584.63;4889062;29;20027;-77
2021/10/16 07:46:54;;;;;;;;;;;;;;;12.38;50.51;99571.59;4875456;29;19912;-75
2021/10/16 07:49:20;;;;;;;;;;;;;;;12.38;49.97;99571.59;4871217;29;19927;-76
2021/10/16 07:51:46;;;;;;;;;;;;;;;12.39;50.22;99571.53;4869200;29;19928;-80
2021/10/16 07:54:13;;;;;;;;;;;;;;;12.40;50.01;99573.25;4869957;29;20472;-78
2021/10/16 07:56:39;;;;;;;;;;;;;;;12.30;49.74;99567.38;4868927;29;19940;-80
2021/10/16 07:59:04;;;;;;;;;;;;;;;12.19;49.67;99571.97;4867661;29;19923;-79
2021/10/16 08:01:30;;;;;;;;;;;;;;;12.05;49.48;99567.00;4867619;29;19923;-80
2021/10/16 08:03:57;;;;;;;;;;;;;;;11.97;49.55;99574.94;4855660;29;19935;-77
2021/10/16 08:06:23;;;;;;;;;;;;;;;11.88;49.42;99582.91;4868749;29;19951;-78
2021/10/16 08:08:49;;;;;;;;;;;;;;;11.78;49.23;99566.56;4869206;29;20384;-80
2021/10/16 08:11:36;;;;;;;;;;;;;;;11.77;49.70;99570.06;4870335;29;20376;-79
2021/10/16 08:14:02;;;;;;;;;;;;;;;11.80;49.54;99566.56;4889688;29;20026;-77
2021/10/16 08:16:28;;;;;;;;;;;;;;;11.84;49.34;99574.28;4867767;29;19924;-79
2021/10/16 08:18:58;;;;;;;;;;;;;;;11.92;49.31;99566.31;4884567;29;19952;-77
2021/10/16 08:21:23;;;;;;;;;;;;;;;12.00;49.25;99561.88;4867370;29;19923;-78
2021/10/16 08:23:49;;;;;;;;;;;;;;;12.11;49.39;99561.66;4870364;29;20067;-78
2021/10/16 08:26:16;;;;;;;;;;;;;;;12.22;49.04;99563.19;4852543;29;20304;-76
2021/10/16 08:28:41;;;;;;;;;;;;;;;12.28;48.82;99565.69;4867795;29;19928;-79
2021/10/16 08:31:07;;;;;;;;;;;;;;;12.31;48.44;99553.44;4883133;29;19939;-79
2021/10/16 08:33:37;;;;;;;;;;;;;;;12.38;48.50;99566.38;4868584;29;20061;-77
2021/10/16 08:36:04;;;;;;;;;;;;;;;12.41;48.53;99561.94;4868938;29;19928;-79
2021/10/16 08:38:32;;;;;;;;;;;;;;;12.46;48.11;99562.72;4870378;29;19924;-80
2021/10/16 08:41:00;;;;;;;;;;;;;;;12.55;48.25;99560.81;4868717;29;19928;-77
2021/10/16 08:43:28;;;;;;;;;;;;;;;12.59;47.73;99558.09;4869813;29;20015;-78
2021/10/16 08:45:59;;;;;;;;;;;;;;;12.78;47.91;99549.88;4874069;29;19962;-78
2021/10/16 08:48:25;;;;;;;;;;;;;;;12.88;47.48;99564.47;4870623;29;20026;-77
2021/10/16 08:50:51;;;;;;;;;;;;;;;12.84;47.07;99552.34;4863380;29;19928;-77
2021/10/16 08:53:17;;;;;;;;;;;;;;;12.79;47.07;99541.16;4862072;29;20349;-80
2021/10/16 08:55:50;;;;;;;;;;;;;;;12.74;46.96;99546.47;4874753;29;19924;-77
2021/10/16 08:58:16;;;;;;;;;;;;;;;12.73;47.11;99554.31;4873967;29;19908;-80
2021/10/16 09:00:51;;;;;;;;;;;;;;;12.78;47.16;99557.69;4850919;29;19963;-78
2021/10/16 09:03:22;;;;;;;;;;;;;;;12.81;46.84;99568.09;4859407;29;19924;-78
2021/10/16 09:05:57;;;;;;;;;;;;;;;12.78;46.44;99553.34;4860833;29;19924;-81
2021/10/16 09:08:41;;;;;;;;;;;;;;;12.84;46.51;99548.88;4854550;29;19992;-79
2021/10/16 09:11:10;;;;;;;;;;;;;;;12.85;46.33;99558.41;4849589;29;20165;-81
2021/10/16 09:13:50;;;;;;;;;;;;;;;12.90;46.40;99556.56;4856890;29;20004;-80
2021/10/16 09:16:36;;;;;;;;;;;;;;;13.08;46.17;99558.75;4857786;29;19955;-79
2021/10/16 09:19:02;;;;;;;;;;;;;;;13.18;46.07;99562.03;4854056;29;20059;-79
2021/10/16 09:21:32;;;;;;;;;;;;;;;13.21;45.69;99556.72;4856234;29;19924;-79
2021/10/16 09:24:06;;;;;;;;;;;;;;;13.24;45.88;99561.88;4862156;29;19935;-78
2021/10/16 09:26:32;;;;;;;;;;;;;;;13.29;45.73;99553.09;4877350;29;20011;-78
2021/10/16 09:28:59;;;;;;;;;;;;;;;13.32;45.72;99543.41;4861610;29;19932;-78
2021/10/16 09:31:37;;;;;;;;;;;;;;;13.34;45.25;99554.69;4851986;29;19940;-81
2021/10/16 09:34:03;;;;;;;;;;;;;;;13.33;45.34;99545.13;4849941;29;19927;-79
2021/10/16 09:36:30;;;;;;;;;;;;;;;13.28;45.38;99546.97;4863841;29;19978;-79
2021/10/16 09:38:56;;;;;;;;;;;;;;;13.23;45.12;99544.50;4852244;29;19924;-78
2021/10/16 09:41:26;;;;;;;;;;;;;;;13.29;45.25;99527.81;4854034;29;20362;-81
2021/10/16 09:43:52;;;;;;;;;;;;;;;13.34;45.14;99541.63;4854075;29;19930;-77
2021/10/16 09:46:19;;;;;;;;;;;;;;;13.38;44.92;99531.94;4856400;29;19952;-80
2021/10/16 09:48:47;;;;;;;;;;;;;;;13.45;45.03;99538.78;4852742;29;19928;-79
2021/10/16 09:51:17;;;;;;;;;;;;;;;13.44;44.60;99537.06;4870741;29;20036;-78
2021/10/16 09:53:46;;;;;;;;;;;;;;;13.46;44.26;99534.41;4851468;29;20765;-79
2021/10/16 09:56:12;;;;;;;;;;;;;;;13.40;43.87;99527.53;4864358;29;19925;-80
2021/10/16 09:58:38;;;;;;;;;;;;;;;13.36;43.96;99531.13;4850483;29;19924;-79
2021/10/16 10:01:04;;;;;;;;;;;;;;;13.31;43.99;99531.22;4853476;29;19935;-81
2021/10/16 10:03:33;;;;;;;;;;;;;;;13.34;44.00;99510.25;4853348;29;19947;-83
2021/10/16 10:05:59;;;;;;;;;;;;;;;13.37;43.76;99515.41;4854254;29;19925;-79
2021/10/16 10:08:25;;;;;;;;;;;;;;;13.41;43.74;99508.38;4841446;29;20529;-81
2021/10/16 10:10:57;;;;;;;;;;;;;;;13.40;43.49;99519.69;4854305;29;20297;-79
2021/10/16 10:13:26;;;;;;;;;;;;;;;13.40;43.40;99506.63;4851569;29;19987;-78
2021/10/16 10:15:53;;;;;;;;;;;;;;;13.44;43.48;99505.69;4848616;29;19934;-78
2021/10/16 10:21:13;;;;;;;;;;;;;;;13.55;43.05;99516.75;4853565;29;19924;-81
2021/10/16 10:23:51;;;;;;;;;;;;;;;13.55;43.08;99511.53;4852048;29;20378;-80
2021/10/16 10:26:33;;;;;;;;;;;;;;;13.60;43.07;99506.16;4852900;29;19997;-81
2021/10/16 10:29:07;;;;;;;;;;;;;;;13.59;42.91;99501.84;4866624;29;19979;-78
2021/10/16 10:32:08;;;;;;;;;;;;;;;13.61;42.90;99499.16;4854045;29;19924;-80
2021/10/16 10:35:00;;;;;;;;;;;;;;;13.61;42.76;99515.72;4844303;29;19924;-80
2021/10/16 10:37:39;;;;;;;;;;;;;;;13.65;42.62;99508.66;4852352;29;19930;-78
2021/10/16 10:40:18;;;;;;;;;;;;;;;13.60;42.39;99505.28;4855315;29;19924;-80
2021/10/16 10:42:53;;;;;;;;;;;;;;;13.56;42.30;99499.28;4873336;29;19924;-80
2021/10/16 10:45:24;;;;;;;;;;;;;;;13.51;42.28;99495.94;4857407;29;20030;-80
2021/10/16 10:48:14;;;;;;;;;;;;;;;13.52;42.27;99495.03;4875200;29;19932;-80
2021/10/16 10:50:45;;;;;;;;;;;;;;;13.50;42.35;99505.53;4876970;29;19961;-79
2021/10/16 10:53:35;;;;;;;;;;;;;;;13.48;42.27;99502.09;4872106;29;19965;-79
2021/10/16 10:56:28;;;;;;;;;;;;;;;13.46;42.07;99503.91;4883377;29;19924;-80
2021/10/16 10:58:56;;;;;;;;;;;;;;;13.44;42.14;99497.84;4891053;29;20026;-80
2021/10/16 11:01:41;;;;;;;;;;;;;;;13.42;42.24;99502.25;4892142;29;19999;-79
2021/10/16 11:04:06;;;;;;;;;;;;;;;13.34;41.99;99504.19;4839057;29;19924;-79
2021/10/16 11:06:34;;;;;;;;;;;;;;;13.30;41.99;99510.38;4888772;29;19945;-78
2021/10/16 11:09:15;;;;;;;;;;;;;;;13.31;42.04;99499.88;4887356;29;19939;-81
2021/10/16 11:11:59;;;;;;;;;;;;;;;13.30;41.97;99497.31;4879042;29;19979;-79
2021/10/16 11:14:43;;;;;;;;;;;;;;;13.35;41.69;99498.91;4892760;29;19928;-78
2021/10/16 11:17:13;;;;;;;;;;;;;;;13.43;41.75;99488.28;4899699;29;19994;-79
2021/10/16 11:19:55;;;;;;;;;;;;;;;13.46;41.63;99498.66;4886842;29;19938;-78
2021/10/16 11:22:40;;;;;;;;;;;;;;;13.48;41.52;99502.09;4896671;29;20151;-78
2021/10/16 11:25:06;;;;;;;;;;;;;;;13.49;41.35;99503.81;4889667;29;19951;-79
2021/10/16 11:27:39;;;;;;;;;;;;;;;13.45;41.59;99491.72;4874948;29;20428;-78
2021/10/16 11:30:16;;;;;;;;;;;;;;;13.42;41.65;99496.19;4873473;29;20051;-79
2021/10/16 11:32:41;;;;;;;;;;;;;;;13.38;41.63;99496.22;4884101;29;19927;-78
2021/10/16 11:35:07;;;;;;;;;;;;;;;13.39;41.56;99478.78;4899106;29;19923;-79
2021/10/16 11:37:33;;;;;;;;;;;;;;;13.36;41.59;99484.06;4879233;29;19930;-78
2021/10/16 11:40:03;;;;;;;;;;;;;;;13.37;41.83;99484.06;4882088;29;19923;-81
2021/10/16 11:42:29;;;;;;;;;;;;;;;13.40;41.56;99488.34;4895348;29;19930;-78
2021/10/16 11:45:01;;;;;;;;;;;;;;;13.44;41.81;99490.00;4859409;29;19923;-77
2021/10/16 11:47:38;;;;;;;;;;;;;;;13.49;41.76;99487.28;4873556;29;19928;-79
2021/10/16 11:50:20;;;;;;;;;;;;;;;13.50;41.58;99491.59;4852429;29;19928;-77
2021/10/16 11:53:34;;;;;;;;;;;;;;;;;;;;;
2021/10/16 11:59:46;;;;;;;;;;;;;;;13.43;41.66;99472.59;4799209;29;19932;-78
2021/10/16 12:02:31;;;;;;;;;;;;;;;13.50;41.40;99492.47;4833708;29;19924;-78
2021/10/16 12:05:27;;;;;;;;;;;;;;;13.48;41.59;99494.25;4866155;29;20417;-80
2021/10/16 12:08:49;;;;;;;;;;;;;;;13.48;41.59;99485.56;4869785;29;19984;-78
2021/10/16 12:11:16;;;;;;;;;;;;;;;13.47;41.44;99474.25;4893450;29;19983;-79
2021/10/16 12:13:42;;;;;;;;;;;;;;;13.49;41.55;99476.81;4888787;29;20400;-78
2021/10/16 12:16:09;;;;;;;;;;;;;;;13.47;41.39;99478.59;4881461;29;20415;-78
2021/10/16 12:18:36;;;;;;;;;;;;;;;13.46;41.48;99490.81;4883673;29;20018;-78
2021/10/16 12:21:05;;;;;;;;;;;;;;;13.40;41.38;99488.34;4900999;29;19996;-79
2021/10/16 12:23:47;;;;;;;;;;;;;;;13.39;41.46;99479.66;4897868;29;19979;-79
2021/10/16 12:26:20;;;;;;;;;;;;;;;13.39;41.26;99479.66;4891904;29;19966;-76
2021/10/16 12:28:46;;;;;;;;;;;;;;;13.38;41.35;99474.44;4874005;29;19994;-77
2021/10/16 12:31:25;;;;;;;;;;;;;;;13.38;41.12;99471.84;4874666;29;19982;-79
2021/10/16 12:34:33;;;;;;;;;;;;;;;13.36;41.13;99477.09;4864081;29;19953;-80
2021/10/16 12:37:11;;;;;;;;;;;;;;;13.33;41.01;99490.25;4876072;29;19924;-78
2021/10/16 12:39:41;;;;;;;;;;;;;;;13.33;41.08;99477.19;4881559;29;20384;-77
2021/10/16 12:42:08;;;;;;;;;;;;;;;13.36;40.80;99473.63;4898905;29;19971;-78
2021/10/16 12:44:53;;;;;;;;;;;;;;;13.38;41.13;99469.22;4875000;29;19923;-78
2021/10/16 12:47:38;;;;;;;;;;;;;;;13.38;40.88;99477.94;4877476;29;19983;-77
2021/10/16 12:50:10;;;;;;;;;;;;;;;13.36;40.90;99477.09;4893344;29;19924;-77
2021/10/16 12:52:40;;;;;;;;;;;;;;;13.30;40.86;99477.25;4890711;29;19939;-76
2021/10/16 12:55:12;;;;;;;;;;;;;;;13.25;40.87;99481.72;4889992;29;19924;-78
2021/10/16 12:57:56;;;;;;;;;;;;;;;13.24;40.89;99474.81;4892455;29;19939;-76
2021/10/16 13:00:25;;;;;;;;;;;;;;;13.19;40.79;99471.47;4888718;29;20444;-79
2021/10/16 13:02:56;;;;;;;;;;;;;;;13.16;41.06;99484.59;4888150;29;19934;-78
2021/10/16 13:05:23;;;;;;;;;;;;;;;12.82;41.10;99434.03;4872138;29;20083;-80
2021/10/16 13:07:48;;;;;;;;;;;;;;;13.02;40.98;99464.03;4889097;29;19928;-78
2021/10/16 13:10:17;;;;;;;;;;;;;;;12.98;40.95;99460.63;4876540;29;19931;-78
2021/10/16 13:12:44;;;;;;;;;;;;;;;12.92;41.02;99466.00;4891351;29;19995;-78
2021/10/16 13:15:13;;;;;;;;;;;;;;;12.89;41.04;99464.34;4888217;29;19958;-79